sensor_id;sensor_type;location;lat;lon;timestamp;pressure;altitude;pressure_sealevel;temperature;humidity
53689;BME280;39583;54.682;30.662;2023-05-16T07:30:19;99426.63;;;21.99;37.64
53689;BME280;39583;54.682;30.662;2023-05-16T07:32:46;99417.69;;;22.13;37.60
53689;BME280;39583;54.682;30.662;2023-05-16T07:35:12;99423.25;;;22.26;37.53
53689;BME280;39583;54.682;30.662;2023-05-16T07:37:38;99427.16;;;22.39;37.44
53689;BME280;39583;54.682;30.662;2023-05-16T07:40:06;99424.50;;;22.53;37.41
53689;BME280;39583;54.682;30.662;2023-05-16T07:42:32;99419.03;;;22.53;37.12
53689;BME280;39583;54.682;30.662;2023-05-16T07:44:58;99420.09;;;22.52;36.76
53689;BME280;39583;54.682;30.662;2023-05-16T07:47:24;99426.72;;;22.51;36.88
53689;BME280;39583;54.682;30.662;2023-05-16T07:49:50;99415.22;;;22.49;36.41
53689;BME280;39583;54.682;30.662;2023-05-16T07:52:16;99425.69;;;22.47;36.70
53689;BME280;39583;54.682;30.662;2023-05-16T07:54:42;99409.91;;;22.71;36.57
53689;BME280;39583;54.682;30.662;2023-05-16T07:57:08;99397.22;;;22.75;35.95
53689;BME280;39583;54.682;30.662;2023-05-16T07:59:33;99395.69;;;22.69;36.05
53689;BME280;39583;54.682;30.662;2023-05-16T08:02:00;99401.47;;;22.67;36.10
53689;BME280;39583;54.682;30.662;2023-05-16T08:04:25;99393.50;;;22.85;35.96
53689;BME280;39583;54.682;30.662;2023-05-16T08:06:51;99399.19;;;22.88;35.68
53689;BME280;39583;54.682;30.662;2023-05-16T08:09:17;99405.88;;;22.82;36.03
53689;BME280;39583;54.682;30.662;2023-05-16T08:11:44;99397.06;;;22.85;36.07
53689;BME280;39583;54.682;30.662;2023-05-16T08:14:13;99415.31;;;22.76;35.59
53689;BME280;39583;54.682;30.662;2023-05-16T08:16:39;99397.38;;;22.65;35.57
53689;BME280;39583;54.682;30.662;2023-05-16T08:19:07;99407.50;;;22.51;35.71
53689;BME280;39583;54.682;30.662;2023-05-16T08:21:33;99407.75;;;22.54;35.82
53689;BME280;39583;54.682;30.662;2023-05-16T08:23:59;99410.03;;;22.47;36.06
53689;BME280;39583;54.682;30.662;2023-05-16T08:26:25;99404.69;;;22.56;35.91
53689;BME280;39583;54.682;30.662;2023-05-16T08:28:51;99385.81;;;22.35;36.12
53689;BME280;39583;54.682;30.662;2023-05-16T08:31:17;99412.47;;;22.49;36.02
53689;BME280;39583;54.682;30.662;2023-05-16T08:33:43;99402.31;;;22.49;35.88
53689;BME280;39583;54.682;30.662;2023-05-16T08:36:09;99410.34;;;22.46;35.88
53689;BME280;39583;54.682;30.662;2023-05-16T08:38:34;99409.94;;;22.52;35.93
53689;BME280;39583;54.682;30.662;2023-05-16T08:41:00;99403.38;;;22.53;36.24
53689;BME280;39583;54.682;30.662;2023-05-16T08:43:27;99410.38;;;22.59;36.14
53689;BME280;39583;54.682;30.662;2023-05-16T08:45:53;99414.66;;;22.65;35.99
53689;BME280;39583;54.682;30.662;2023-05-16T08:48:22;99409.19;;;22.65;36.16
53689;BME280;39583;54.682;30.662;2023-05-16T08:50:48;99401.25;;;22.64;36.38
53689;BME280;39583;54.682;30.662;2023-05-16T08:53:16;99405.03;;;22.68;35.88
53689;BME280;39583;54.682;30.662;2023-05-16T08:55:46;99416.00;;;22.68;36.38
53689;BME280;39583;54.682;30.662;2023-05-16T08:58:13;99408.59;;;22.69;36.08
53689;BME280;39583;54.682;30.662;2023-05-16T09:00:39;99404.28;;;22.62;35.95
53689;BME280;39583;54.682;30.662;2023-05-16T09:03:05;99414.97;;;22.64;36.32
53689;BME280;39583;54.682;30.662;2023-05-16T09:05:31;99391.66;;;22.48;36.22
53689;BME280;39583;54.682;30.662;2023-05-16T09:07:58;99409.38;;;22.55;36.31
53689;BME280;39583;54.682;30.662;2023-05-16T09:10:24;99413.28;;;22.49;36.64
53689;BME280;39583;54.682;30.662;2023-05-16T09:12:51;99419.47;;;22.41;36.23
53689;BME280;39583;54.682;30.662;2023-05-16T09:15:17;99411.91;;;22.33;36.42
53689;BME280;39583;54.682;30.662;2023-05-16T09:17:45;99407.63;;;22.27;36.50
53689;BME280;39583;54.682;30.662;2023-05-16T09:22:50;99408.00;;;22.20;36.69
53689;BME280;39583;54.682;30.662;2023-05-16T09:25:17;99419.38;;;22.14;37.02
53689;BME280;39583;54.682;30.662;2023-05-16T09:27:45;99418.31;;;22.10;36.92
53689;BME280;39583;54.682;30.662;2023-05-16T09:30:13;99422.75;;;22.05;37.17
53689;BME280;39583;54.682;30.662;2023-05-16T09:32:44;99415.53;;;21.91;37.44
53689;BME280;39583;54.682;30.662;2023-05-16T09:35:14;99427.53;;;21.95;37.49
53689;BME280;39583;54.682;30.662;2023-05-16T09:37:48;99425.44;;;21.87;37.93
53689;BME280;39583;54.682;30.662;2023-05-16T09:40:14;99400.69;;;21.73;38.10
53689;BME280;39583;54.682;30.662;2023-05-16T09:42:41;99429.38;;;21.81;38.13
53689;BME280;39583;54.682;30.662;2023-05-16T09:45:12;99426.97;;;21.74;38.69
53689;BME280;39583;54.682;30.662;2023-05-16T09:47:39;99429.28;;;21.67;38.95
53689;BME280;39583;54.682;30.662;2023-05-16T09:50:13;99436.28;;;21.54;39.00
53689;BME280;39583;54.682;30.662;2023-05-16T09:52:41;99444.84;;;21.47;39.38
53689;BME280;39583;54.682;30.662;2023-05-16T09:55:09;99437.50;;;21.43;39.44
53689;BME280;39583;54.682;30.662;2023-05-16T09:57:38;99444.63;;;21.44;39.51
53689;BME280;39583;54.682;30.662;2023-05-16T10:00:06;99448.47;;;21.43;39.43
53689;BME280;39583;54.682;30.662;2023-05-16T10:02:36;99450.91;;;21.44;39.70
53689;BME280;39583;54.682;30.662;2023-05-16T10:05:04;99447.94;;;21.41;39.76
53689;BME280;39583;54.682;30.662;2023-05-16T10:07:31;99430.00;;;21.30;39.67
53689;BME280;39583;54.682;30.662;2023-05-16T10:10:05;99455.00;;;21.47;39.81
53689;BME280;39583;54.682;30.662;2023-05-16T10:12:33;99446.72;;;21.52;39.72
53689;BME280;39583;54.682;30.662;2023-05-16T10:15:04;99449.91;;;21.59;39.69
53689;BME280;39583;54.682;30.662;2023-05-16T10:17:34;99453.72;;;21.63;39.82
53689;BME280;39583;54.682;30.662;2023-05-16T10:20:05;99442.38;;;21.51;39.76
53689;BME280;39583;54.682;30.662;2023-05-16T10:22:37;99447.78;;;21.56;39.38
53689;BME280;39583;54.682;30.662;2023-05-16T10:25:19;99451.63;;;21.55;39.74
53689;BME280;39583;54.682;30.662;2023-05-16T10:27:46;99453.53;;;21.55;39.91
53689;BME280;39583;54.682;30.662;2023-05-16T10:30:14;99459.13;;;21.44;39.99
53689;BME280;39583;54.682;30.662;2023-05-16T10:32:42;99459.78;;;21.36;40.20
53689;BME280;39583;54.682;30.662;2023-05-16T10:35:09;99469.97;;;21.31;40.35
53689;BME280;39583;54.682;30.662;2023-05-16T10:37:36;99464.56;;;21.20;40.47
53689;BME280;39583;54.682;30.662;2023-05-16T10:40:04;99466.94;;;21.03;40.84
53689;BME280;39583;54.682;30.662;2023-05-16T10:42:31;99468.22;;;20.82;41.03
53689;BME280;39583;54.682;30.662;2023-05-16T10:45:16;99477.94;;;20.64;42.04
53689;BME280;39583;54.682;30.662;2023-05-16T10:50:44;99483.91;;;20.32;42.96
53689;BME280;39583;54.682;30.662;2023-05-16T10:53:18;99476.84;;;20.21;43.78
53689;BME280;39583;54.682;30.662;2023-05-16T11:01:30;99479.25;;;20.32;43.55
53689;BME280;39583;54.682;30.662;2023-05-16T11:06:29;99483.53;;;20.49;43.45
53689;BME280;39583;54.682;30.662;2023-05-16T11:09:24;99482.09;;;20.56;43.71
53689;BME280;39583;54.682;30.662;2023-05-16T11:16:49;99491.22;;;20.81;44.68
53689;BME280;39583;54.682;30.662;2023-05-16T11:19:28;99496.59;;;20.91;44.77
53689;BME280;39583;54.682;30.662;2023-05-16T11:25:09;99498.97;;;21.03;45.26
53689;BME280;39583;54.682;30.662;2023-05-16T11:27:45;99508.38;;;20.91;46.10
53689;BME280;39583;54.682;30.662;2023-05-16T11:30:13;99498.28;;;20.87;46.33
53689;BME280;39583;54.682;30.662;2023-05-16T11:32:42;99486.38;;;20.73;46.28
53689;BME280;39583;54.682;30.662;2023-05-16T11:35:10;99506.34;;;20.73;46.15
53689;BME280;39583;54.682;30.662;2023-05-16T11:37:37;99500.56;;;20.75;45.96
53689;BME280;39583;54.682;30.662;2023-05-16T11:40:07;99509.88;;;20.74;45.70
53689;BME280;39583;54.682;30.662;2023-05-16T11:42:41;99508.53;;;20.71;45.81
53689;BME280;39583;54.682;30.662;2023-05-16T11:47:38;99508.09;;;20.59;47.17
53689;BME280;39583;54.682;30.662;2023-05-16T11:50:15;99518.22;;;20.53;47.15
53689;BME280;39583;54.682;30.662;2023-05-16T11:52:43;99505.13;;;20.50;46.99
53689;BME280;39583;54.682;30.662;2023-05-16T11:55:10;99504.31;;;20.50;47.28
53689;BME280;39583;54.682;30.662;2023-05-16T11:57:40;99509.00;;;20.39;47.50
53689;BME280;39583;54.682;30.662;2023-05-16T12:00:21;99513.75;;;20.23;47.98
53689;BME280;39583;54.682;30.662;2023-05-16T12:02:49;99514.13;;;20.07;47.17
53689;BME280;39583;54.682;30.662;2023-05-16T12:05:16;99520.19;;;19.93;47.38
53689;BME280;39583;54.682;30.662;2023-05-16T12:07:44;99524.06;;;19.82;47.02
53689;BME280;39583;54.682;30.662;2023-05-16T12:10:12;99504.63;;;19.79;46.92
53689;BME280;39583;54.682;30.662;2023-05-16T12:12:43;99501.91;;;19.84;46.53
53689;BME280;39583;54.682;30.662;2023-05-16T12:15:10;99515.03;;;19.82;46.39
53689;BME280;39583;54.682;30.662;2023-05-16T12:17:37;99525.66;;;19.88;46.16
53689;BME280;39583;54.682;30.662;2023-05-16T12:20:05;99516.94;;;19.81;46.32
53689;BME280;39583;54.682;30.662;2023-05-16T12:22:39;99527.31;;;19.79;46.18
53689;BME280;39583;54.682;30.662;2023-05-16T12:27:53;99511.41;;;19.91;46.04
53689;BME280;39583;54.682;30.662;2023-05-16T12:30:23;99512.25;;;19.97;45.83
53689;BME280;39583;54.682;30.662;2023-05-16T12:33:15;99521.47;;;20.11;45.16
53689;BME280;39583;54.682;30.662;2023-05-16T12:35:45;99513.22;;;20.21;44.75
53689;BME280;39583;54.682;30.662;2023-05-16T12:38:14;99515.56;;;20.38;44.46
53689;BME280;39583;54.682;30.662;2023-05-16T12:40:42;99525.91;;;20.51;44.43
53689;BME280;39583;54.682;30.662;2023-05-16T12:43:16;99522.41;;;20.46;44.02
53689;BME280;39583;54.682;30.662;2023-05-16T12:45:48;99508.81;;;20.25;43.83
53689;BME280;39583;54.682;30.662;2023-05-16T12:48:14;99512.19;;;20.02;43.94
53689;BME280;39583;54.682;30.662;2023-05-16T12:50:41;99499.44;;;19.87;43.83
53689;BME280;39583;54.682;30.662;2023-05-16T12:53:12;99508.97;;;19.90;43.14
53689;BME280;39583;54.682;30.662;2023-05-16T12:55:38;99510.59;;;19.96;42.26
53689;BME280;39583;54.682;30.662;2023-05-16T12:58:04;99510.31;;;19.97;42.33
53689;BME280;39583;54.682;30.662;2023-05-16T13:00:30;99495.84;;;19.97;42.79
53689;BME280;39583;54.682;30.662;2023-05-16T13:02:56;99492.28;;;19.91;42.12
53689;BME280;39583;54.682;30.662;2023-05-16T13:05:23;99490.94;;;19.89;41.85
53689;BME280;39583;54.682;30.662;2023-05-16T13:07:49;99478.38;;;19.93;41.84
53689;BME280;39583;54.682;30.662;2023-05-16T13:10:18;99488.50;;;19.92;40.99
53689;BME280;39583;54.682;30.662;2023-05-16T13:12:44;99481.31;;;20.01;40.65
53689;BME280;39583;54.682;30.662;2023-05-16T13:15:12;99482.94;;;20.08;39.54
53689;BME280;39583;54.682;30.662;2023-05-16T13:17:40;99494.13;;;20.11;39.35
53689;BME280;39583;54.682;30.662;2023-05-16T13:20:06;99511.31;;;20.17;39.71
53689;BME280;39583;54.682;30.662;2023-05-16T13:22:37;99508.66;;;20.07;40.35
53689;BME280;39583;54.682;30.662;2023-05-16T13:25:04;99511.69;;;19.95;40.63
53689;BME280;39583;54.682;30.662;2023-05-16T13:27:31;99503.81;;;19.83;40.07
53689;BME280;39583;54.682;30.662;2023-05-16T13:29:59;99500.34;;;19.67;38.75
53689;BME280;39583;54.682;30.662;2023-05-16T13:32:25;99517.84;;;19.56;38.71
53689;BME280;39583;54.682;30.662;2023-05-16T13:34:51;99515.38;;;19.50;38.76
53689;BME280;39583;54.682;30.662;2023-05-16T13:37:17;99507.22;;;19.55;39.31
53689;BME280;39583;54.682;30.662;2023-05-16T13:39:44;99526.31;;;19.55;39.34
53689;BME280;39583;54.682;30.662;2023-05-16T13:42:10;99532.31;;;19.67;39.84
53689;BME280;39583;54.682;30.662;2023-05-16T13:44:36;99523.75;;;19.79;40.06
53689;BME280;39583;54.682;30.662;2023-05-16T13:47:02;99520.72;;;19.90;39.07
53689;BME280;39583;54.682;30.662;2023-05-16T13:49:28;99521.50;;;20.06;38.85
53689;BME280;39583;54.682;30.662;2023-05-16T13:51:54;99518.41;;;20.23;38.36
53689;BME280;39583;54.682;30.662;2023-05-16T13:54:21;99516.09;;;20.40;37.73
53689;BME280;39583;54.682;30.662;2023-05-16T13:56:47;99503.13;;;20.61;37.19
53689;BME280;39583;54.682;30.662;2023-05-16T13:59:14;99507.69;;;20.76;36.82
53689;BME280;39583;54.682;30.662;2023-05-16T14:01:40;99501.50;;;20.94;36.68
53689;BME280;39583;54.682;30.662;2023-05-16T14:04:06;99496.97;;;21.13;36.25
53689;BME280;39583;54.682;30.662;2023-05-16T14:06:32;99492.41;;;21.33;36.53
53689;BME280;39583;54.682;30.662;2023-05-16T14:08:58;99506.09;;;21.33;36.29
53689;BME280;39583;54.682;30.662;2023-05-16T14:11:24;99500.69;;;21.28;36.52
53689;BME280;39583;54.682;30.662;2023-05-16T14:13:52;99498.53;;;21.19;36.57
53689;BME280;39583;54.682;30.662;2023-05-16T14:16:19;99494.50;;;21.12;36.82
53689;BME280;39583;54.682;30.662;2023-05-16T14:18:46;99504.94;;;21.10;37.16
53689;BME280;39583;54.682;30.662;2023-05-16T14:21:12;99480.13;;;20.96;37.21
53689;BME280;39583;54.682;30.662;2023-05-16T14:23:40;99499.34;;;20.91;37.51
53689;BME280;39583;54.682;30.662;2023-05-16T14:26:07;99497.50;;;20.81;37.74
53689;BME280;39583;54.682;30.662;2023-05-16T14:28:34;99495.41;;;20.68;38.27
53689;BME280;39583;54.682;30.662;2023-05-16T14:31:01;99503.34;;;20.70;38.55
53689;BME280;39583;54.682;30.662;2023-05-16T14:33:27;99500.66;;;20.65;38.82
53689;BME280;39583;54.682;30.662;2023-05-16T14:35:53;99514.44;;;20.49;39.30
53689;BME280;39583;54.682;30.662;2023-05-16T14:38:19;99490.81;;;20.19;39.58
53689;BME280;39583;54.682;30.662;2023-05-16T14:40:45;99496.91;;;20.06;39.99
53689;BME280;39583;54.682;30.662;2023-05-16T14:43:11;99514.66;;;20.03;40.40
53689;BME280;39583;54.682;30.662;2023-05-16T14:45:37;99513.59;;;19.99;40.70
53689;BME280;39583;54.682;30.662;2023-05-16T14:48:06;99509.75;;;20.00;40.92
53689;BME280;39583;54.682;30.662;2023-05-16T14:50:32;99510.88;;;19.94;40.89
53689;BME280;39583;54.682;30.662;2023-05-16T14:52:59;99526.22;;;19.85;41.24
53689;BME280;39583;54.682;30.662;2023-05-16T14:55:24;99522.94;;;19.78;41.33
53689;BME280;39583;54.682;30.662;2023-05-16T14:57:51;99529.78;;;19.76;41.40
53689;BME280;39583;54.682;30.662;2023-05-16T15:00:22;99535.03;;;19.67;41.57
53689;BME280;39583;54.682;30.662;2023-05-16T15:02:48;99537.75;;;19.62;41.82
53689;BME280;39583;54.682;30.662;2023-05-16T15:05:14;99535.34;;;19.55;41.99
53689;BME280;39583;54.682;30.662;2023-05-16T15:07:40;99538.03;;;19.50;41.96
53689;BME280;39583;54.682;30.662;2023-05-16T15:10:06;99539.69;;;19.46;42.18
53689;BME280;39583;54.682;30.662;2023-05-16T15:12:32;99532.88;;;19.43;42.19
53689;BME280;39583;54.682;30.662;2023-05-16T15:14:58;99539.72;;;19.41;42.29
53689;BME280;39583;54.682;30.662;2023-05-16T15:17:24;99541.88;;;19.39;42.28
53689;BME280;39583;54.682;30.662;2023-05-16T15:19:49;99539.69;;;19.36;42.52
53689;BME280;39583;54.682;30.662;2023-05-16T15:22:17;99532.88;;;19.33;42.79
53689;BME280;39583;54.682;30.662;2023-05-16T15:24:43;99533.69;;;19.34;42.90
53689;BME280;39583;54.682;30.662;2023-05-16T15:27:09;99532.88;;;19.33;43.03
53689;BME280;39583;54.682;30.662;2023-05-16T15:29:35;99542.44;;;19.31;43.28
53689;BME280;39583;54.682;30.662;2023-05-16T15:32:04;99543.53;;;19.30;43.32
53689;BME280;39583;54.682;30.662;2023-05-16T15:34:32;99535.06;;;19.26;43.38
53689;BME280;39583;54.682;30.662;2023-05-16T15:36:59;99545.72;;;19.23;43.62
53689;BME280;39583;54.682;30.662;2023-05-16T15:39:25;99548.75;;;19.16;43.74
53689;BME280;39583;54.682;30.662;2023-05-16T15:41:52;99547.38;;;19.08;44.30
53689;BME280;39583;54.682;30.662;2023-05-16T15:44:18;99539.72;;;19.00;44.62
53689;BME280;39583;54.682;30.662;2023-05-16T15:46:44;99535.91;;;18.96;44.90
53689;BME280;39583;54.682;30.662;2023-05-16T15:49:10;99535.91;;;18.91;45.17
53689;BME280;39583;54.682;30.662;2023-05-16T15:51:37;99541.63;;;18.84;45.32
53689;BME280;39583;54.682;30.662;2023-05-16T15:54:03;99545.19;;;18.80;45.06
53689;BME280;39583;54.682;30.662;2023-05-16T15:56:29;99529.38;;;18.77;45.18
53689;BME280;39583;54.682;30.662;2023-05-16T15:58:55;99534.53;;;18.73;45.28
53689;BME280;39583;54.682;30.662;2023-05-16T16:01:21;99527.44;;;18.72;45.05
53689;BME280;39583;54.682;30.662;2023-05-16T16:03:47;99529.63;;;18.70;44.81
53689;BME280;39583;54.682;30.662;2023-05-16T16:06:13;99523.91;;;18.67;44.83
53689;BME280;39583;54.682;30.662;2023-05-16T16:08:39;99532.03;;;18.62;45.00
53689;BME280;39583;54.682;30.662;2023-05-16T16:11:05;99536.38;;;18.57;45.00
53689;BME280;39583;54.682;30.662;2023-05-16T16:13:31;99526.56;;;18.46;45.30
53689;BME280;39583;54.682;30.662;2023-05-16T16:15:57;99536.91;;;18.39;45.55
53689;BME280;39583;54.682;30.662;2023-05-16T16:18:23;99544.25;;;18.34;45.35
53689;BME280;39583;54.682;30.662;2023-05-16T16:20:49;99542.06;;;18.25;45.73
53689;BME280;39583;54.682;30.662;2023-05-16T16:23:15;99536.84;;;18.19;45.99
53689;BME280;39583;54.682;30.662;2023-05-16T16:25:42;99545.84;;;18.14;46.02
53689;BME280;39583;54.682;30.662;2023-05-16T16:28:08;99541.69;;;18.07;46.19
53689;BME280;39583;54.682;30.662;2023-05-16T16:30:35;99549.88;;;18.02;46.19
53689;BME280;39583;54.682;30.662;2023-05-16T16:33:01;99494.91;;;17.62;46.64
53689;BME280;39583;54.682;30.662;2023-05-16T16:35:27;99545.75;;;17.94;46.31
53689;BME280;39583;54.682;30.662;2023-05-16T16:37:53;99548.19;;;17.90;46.58
53689;BME280;39583;54.682;30.662;2023-05-16T16:40:20;99557.72;;;17.88;47.00
53689;BME280;39583;54.682;30.662;2023-05-16T16:42:46;99567.47;;;17.84;47.05
53689;BME280;39583;54.682;30.662;2023-05-16T16:45:12;99566.94;;;17.82;47.29
53689;BME280;39583;54.682;30.662;2023-05-16T16:47:38;99569.38;;;17.78;47.32
53689;BME280;39583;54.682;30.662;2023-05-16T16:50:06;99584.06;;;17.77;47.27
53689;BME280;39583;54.682;30.662;2023-05-16T16:52:33;99579.13;;;17.69;47.31
53689;BME280;39583;54.682;30.662;2023-05-16T16:54:59;99582.16;;;17.73;47.69
53689;BME280;39583;54.682;30.662;2023-05-16T16:57:25;99589.50;;;17.72;47.51
53689;BME280;39583;54.682;30.662;2023-05-16T16:59:52;99590.59;;;17.71;47.54
53689;BME280;39583;54.682;30.662;2023-05-16T17:02:18;99583.97;;;17.67;47.75
53689;BME280;39583;54.682;30.662;2023-05-16T17:04:44;99590.81;;;17.69;47.53
53689;BME280;39583;54.682;30.662;2023-05-16T17:07:10;99585.59;;;17.63;47.92
53689;BME280;39583;54.682;30.662;2023-05-16T17:09:36;99587.78;;;17.66;48.09
53689;BME280;39583;54.682;30.662;2023-05-16T17:12:05;99582.59;;;17.64;47.80
53689;BME280;39583;54.682;30.662;2023-05-16T17:14:33;99583.13;;;17.61;47.86
53689;BME280;39583;54.682;30.662;2023-05-16T17:16:59;99573.00;;;17.57;47.99
53689;BME280;39583;54.682;30.662;2023-05-16T17:19:25;99578.47;;;17.57;48.07
53689;BME280;39583;54.682;30.662;2023-05-16T17:21:51;99573.28;;;17.55;48.36
53689;BME280;39583;54.682;30.662;2023-05-16T17:24:17;99570.28;;;17.52;48.49
53689;BME280;39583;54.682;30.662;2023-05-16T17:26:43;99571.34;;;17.51;48.62
53689;BME280;39583;54.682;30.662;2023-05-16T17:29:09;99564.53;;;17.48;48.29
53689;BME280;39583;54.682;30.662;2023-05-16T17:31:35;99577.34;;;17.48;48.60
53689;BME280;39583;54.682;30.662;2023-05-16T17:34:02;99579.50;;;17.46;48.69
53689;BME280;39583;54.682;30.662;2023-05-16T17:36:28;99575.63;;;17.42;49.06
53689;BME280;39583;54.682;30.662;2023-05-16T17:38:55;99572.59;;;17.33;48.96
53689;BME280;39583;54.682;30.662;2023-05-16T17:41:23;99567.66;;;17.30;49.20
53689;BME280;39583;54.682;30.662;2023-05-16T17:43:49;99583.72;;;17.31;49.20
53689;BME280;39583;54.682;30.662;2023-05-16T17:46:15;99583.97;;;17.25;49.67
53689;BME280;39583;54.682;30.662;2023-05-16T17:48:42;99590.97;;;17.16;49.86
53689;BME280;39583;54.682;30.662;2023-05-16T17:51:08;99590.63;;;17.07;50.04
53689;BME280;39583;54.682;30.662;2023-05-16T17:53:34;99587.03;;;17.01;50.35
53689;BME280;39583;54.682;30.662;2023-05-16T17:56:02;99583.19;;;16.97;50.31
53689;BME280;39583;54.682;30.662;2023-05-16T17:58:28;99586.44;;;16.94;50.61
53689;BME280;39583;54.682;30.662;2023-05-16T18:00:54;99581.50;;;16.91;50.44
53689;BME280;39583;54.682;30.662;2023-05-16T18:03:20;99585.81;;;16.87;50.83
53689;BME280;39583;54.682;30.662;2023-05-16T18:05:46;99590.41;;;16.82;50.88
53689;BME280;39583;54.682;30.662;2023-05-16T18:08:13;99591.72;;;16.79;50.79
53689;BME280;39583;54.682;30.662;2023-05-16T18:10:39;99596.59;;;16.77;50.95
53689;BME280;39583;54.682;30.662;2023-05-16T18:13:05;99592.22;;;16.76;51.01
53689;BME280;39583;54.682;30.662;2023-05-16T18:15:32;99593.06;;;16.76;51.01
53689;BME280;39583;54.682;30.662;2023-05-16T18:18:01;99592.22;;;16.76;50.98
53689;BME280;39583;54.682;30.662;2023-05-16T18:20:27;99600.38;;;16.76;50.91
53689;BME280;39583;54.682;30.662;2023-05-16T18:22:54;99594.69;;;16.77;50.85
53689;BME280;39583;54.682;30.662;2023-05-16T18:25:20;99596.09;;;16.80;50.76
53689;BME280;39583;54.682;30.662;2023-05-16T18:27:47;99601.53;;;16.80;50.69
53689;BME280;39583;54.682;30.662;2023-05-16T18:30:13;99598.31;;;16.83;50.22
53689;BME280;39583;54.682;30.662;2023-05-16T18:32:39;99592.31;;;16.81;50.14
53689;BME280;39583;54.682;30.662;2023-05-16T18:35:06;99591.78;;;16.84;49.95
53689;BME280;39583;54.682;30.662;2023-05-16T18:37:32;99591.78;;;16.84;49.77
53689;BME280;39583;54.682;30.662;2023-05-16T18:39:58;99585.78;;;16.82;49.61
53689;BME280;39583;54.682;30.662;2023-05-16T18:42:24;99590.91;;;16.78;49.89
53689;BME280;39583;54.682;30.662;2023-05-16T18:44:51;99590.59;;;16.75;49.66
53689;BME280;39583;54.682;30.662;2023-05-16T18:47:17;99594.66;;;16.72;49.81
53689;BME280;39583;54.682;30.662;2023-05-16T18:49:45;99601.16;;;16.71;49.83
53689;BME280;39583;54.682;30.662;2023-05-16T18:52:11;99605.22;;;16.69;49.86
53689;BME280;39583;54.682;30.662;2023-05-16T18:54:42;99592.47;;;16.69;49.81
53689;BME280;39583;54.682;30.662;2023-05-16T18:57:27;99600.88;;;16.68;50.02
53689;BME280;39583;54.682;30.662;2023-05-16T18:59:53;99604.88;;;16.65;50.17
53689;BME280;39583;54.682;30.662;2023-05-16T19:02:21;99605.91;;;16.59;50.02
53689;BME280;39583;54.682;30.662;2023-05-16T19:04:47;99603.63;;;16.51;50.26
53689;BME280;39583;54.682;30.662;2023-05-16T19:07:14;99603.28;;;16.42;50.31
53689;BME280;39583;54.682;30.662;2023-05-16T19:09:40;99604.59;;;16.40;50.54
53689;BME280;39583;54.682;30.662;2023-05-16T19:12:06;99610.28;;;16.38;50.44
53689;BME280;39583;54.682;30.662;2023-05-16T19:14:32;99590.09;;;16.29;50.27
53689;BME280;39583;54.682;30.662;2023-05-16T19:16:58;99605.41;;;16.40;50.25
53689;BME280;39583;54.682;30.662;2023-05-16T19:19:24;99612.75;;;16.40;50.22
53689;BME280;39583;54.682;30.662;2023-05-16T19:21:50;99605.41;;;16.40;50.04
53689;BME280;39583;54.682;30.662;2023-05-16T19:24:16;99607.91;;;16.42;49.82
53689;BME280;39583;54.682;30.662;2023-05-16T19:26:42;99606.00;;;16.42;50.03
53689;BME280;39583;54.682;30.662;2023-05-16T19:29:07;99613.34;;;16.42;50.07
